sensor_id;sensor_type;location;lat;lon;timestamp;pressure;altitude;pressure_sealevel;temperature;humidity
76137;BME280;68622;53.128;17.966;2023-12-20T00:01:35;100366.10;;;7.91;77.63
76137;BME280;68622;53.128;17.966;2023-12-20T00:04:02;100365.42;;;7.99;77.40
76137;BME280;68622;53.128;17.966;2023-12-20T00:06:28;100366.01;;;8.01;77.21
76137;BME280;68622;53.128;17.966;2023-12-20T00:08:54;100364.67;;;7.98;77.16
76137;BME280;68622;53.128;17.966;2023-12-20T00:11:20;100367.67;;;8.02;77.01
76137;BME280;68622;53.128;17.966;2023-12-20T00:13:46;100364.77;;;7.99;77.31
76137;BME280;68622;53.128;17.966;2023-12-20T00:16:12;100364.36;;;8.00;77.17
76137;BME280;68622;53.128;17.966;2023-12-20T00:18:38;100367.60;;;7.98;77.20
76137;BME280;68622;53.128;17.966;2023-12-20T00:21:04;100364.41;;;7.95;77.41
76137;BME280;68622;53.128;17.966;2023-12-20T00:23:30;100362.45;;;7.93;77.44
76137;BME280;68622;53.128;17.966;2023-12-20T00:25:56;100360.61;;;8.01;77.04
76137;BME280;68622;53.128;17.966;2023-12-20T00:28:22;100359.00;;;8.02;77.29
76137;BME280;68622;53.128;17.966;2023-12-20T00:30:48;100359.12;;;8.05;77.08
76137;BME280;68622;53.128;17.966;2023-12-20T00:33:14;100353.44;;;8.06;77.38
76137;BME280;68622;53.128;17.966;2023-12-20T00:35:40;100346.00;;;8.13;77.00
76137;BME280;68622;53.128;17.966;2023-12-20T00:38:06;100344.46;;;8.17;77.10
76137;BME280;68622;53.128;17.966;2023-12-20T00:40:34;100340.40;;;8.13;76.93
76137;BME280;68622;53.128;17.966;2023-12-20T00:43:00;100345.39;;;8.12;77.15
76137;BME280;68622;53.128;17.966;2023-12-20T00:45:26;100346.21;;;8.12;77.01
76137;BME280;68622;53.128;17.966;2023-12-20T00:47:52;100352.35;;;8.09;77.16
76137;BME280;68622;53.128;17.966;2023-12-20T00:50:18;100349.50;;;8.04;77.53
76137;BME280;68622;53.128;17.966;2023-12-20T00:52:43;100351.16;;;8.11;77.19
76137;BME280;68622;53.128;17.966;2023-12-20T00:55:09;100343.38;;;8.09;77.39
76137;BME280;68622;53.128;17.966;2023-12-20T00:57:35;100341.30;;;8.11;77.19
76137;BME280;68622;53.128;17.966;2023-12-20T01:00:01;100343.02;;;8.07;77.27
76137;BME280;68622;53.128;17.966;2023-12-20T01:02:28;100341.59;;;8.10;77.18
76137;BME280;68622;53.128;17.966;2023-12-20T01:04:54;100341.03;;;8.14;77.21
76137;BME280;68622;53.128;17.966;2023-12-20T01:07:19;100336.12;;;8.17;76.93
76137;BME280;68622;53.128;17.966;2023-12-20T01:09:45;100334.21;;;8.17;76.74
76137;BME280;68622;53.128;17.966;2023-12-20T01:12:11;100333.48;;;8.14;77.25
76137;BME280;68622;53.128;17.966;2023-12-20T01:14:37;100326.94;;;8.18;76.93
76137;BME280;68622;53.128;17.966;2023-12-20T01:17:05;100327.95;;;8.20;76.80
76137;BME280;68622;53.128;17.966;2023-12-20T01:19:31;100325.38;;;8.09;77.23
76137;BME280;68622;53.128;17.966;2023-12-20T01:21:57;100321.22;;;8.16;76.90
76137;BME280;68622;53.128;17.966;2023-12-20T01:24:23;100323.12;;;8.18;76.86
76137;BME280;68622;53.128;17.966;2023-12-20T01:26:49;100317.93;;;8.18;76.96
76137;BME280;68622;53.128;17.966;2023-12-20T01:29:15;100317.55;;;8.20;76.64
76137;BME280;68622;53.128;17.966;2023-12-20T01:31:41;100318.03;;;8.18;76.74
76137;BME280;68622;53.128;17.966;2023-12-20T01:34:07;100318.71;;;8.17;77.09
76137;BME280;68622;53.128;17.966;2023-12-20T01:36:33;100311.80;;;8.09;77.19
76137;BME280;68622;53.128;17.966;2023-12-20T01:38:59;100310.47;;;8.14;77.12
76137;BME280;68622;53.128;17.966;2023-12-20T01:41:25;100305.48;;;8.20;77.20
76137;BME280;68622;53.128;17.966;2023-12-20T01:43:51;100300.66;;;8.15;77.19
76137;BME280;68622;53.128;17.966;2023-12-20T01:46:19;100299.55;;;8.15;77.18
76137;BME280;68622;53.128;17.966;2023-12-20T01:48:47;100295.83;;;8.12;77.37
76137;BME280;68622;53.128;17.966;2023-12-20T01:51:13;100301.51;;;8.20;77.11
76137;BME280;68622;53.128;17.966;2023-12-20T01:53:40;100300.35;;;8.17;77.19
76137;BME280;68622;53.128;17.966;2023-12-20T01:56:07;100295.77;;;8.14;77.20
76137;BME280;68622;53.128;17.966;2023-12-20T01:58:33;100288.69;;;8.17;77.12
76137;BME280;68622;53.128;17.966;2023-12-20T02:00:59;100290.70;;;8.15;77.27
76137;BME280;68622;53.128;17.966;2023-12-20T02:03:25;100294.95;;;8.16;77.15
76137;BME280;68622;53.128;17.966;2023-12-20T02:05:52;100293.96;;;8.13;77.23
76137;BME280;68622;53.128;17.966;2023-12-20T02:08:18;100295.73;;;8.19;77.01
76137;BME280;68622;53.128;17.966;2023-12-20T02:10:44;100297.20;;;8.20;76.98
76137;BME280;68622;53.128;17.966;2023-12-20T02:13:10;100296.86;;;8.16;77.40
76137;BME280;68622;53.128;17.966;2023-12-20T02:15:36;100291.02;;;8.17;77.12
76137;BME280;68622;53.128;17.966;2023-12-20T02:18:08;100285.98;;;8.12;77.31
76137;BME280;68622;53.128;17.966;2023-12-20T02:20:33;100286.50;;;8.14;77.30
76137;BME280;68622;53.128;17.966;2023-12-20T02:22:59;100282.20;;;8.19;77.16
76137;BME280;68622;53.128;17.966;2023-12-20T02:25:25;100274.77;;;8.25;76.96
76137;BME280;68622;53.128;17.966;2023-12-20T02:27:52;100276.23;;;8.08;77.80
76137;BME280;68622;53.128;17.966;2023-12-20T02:30:18;100274.58;;;8.16;77.63
76137;BME280;68622;53.128;17.966;2023-12-20T02:32:44;100275.59;;;8.18;77.25
76137;BME280;68622;53.128;17.966;2023-12-20T02:35:09;100277.10;;;8.14;77.54
76137;BME280;68622;53.128;17.966;2023-12-20T02:37:35;100271.17;;;8.13;77.43
76137;BME280;68622;53.128;17.966;2023-12-20T02:40:01;100270.67;;;8.17;77.45
76137;BME280;68622;53.128;17.966;2023-12-20T02:42:30;100264.36;;;8.18;77.37
76137;BME280;68622;53.128;17.966;2023-12-20T02:44:55;100268.75;;;8.13;77.62
76137;BME280;68622;53.128;17.966;2023-12-20T02:47:21;100261.92;;;8.16;77.32
76137;BME280;68622;53.128;17.966;2023-12-20T02:49:47;100260.08;;;8.14;77.42
76137;BME280;68622;53.128;17.966;2023-12-20T02:52:13;100260.39;;;8.16;77.04
76137;BME280;68622;53.128;17.966;2023-12-20T02:54:39;100264.38;;;8.16;77.13
76137;BME280;68622;53.128;17.966;2023-12-20T02:57:06;100265.66;;;8.13;77.13
76137;BME280;68622;53.128;17.966;2023-12-20T02:59:32;100267.67;;;8.12;77.04
76137;BME280;68622;53.128;17.966;2023-12-20T03:01:58;100266.31;;;8.09;77.20
76137;BME280;68622;53.128;17.966;2023-12-20T03:04:24;100261.59;;;8.08;77.48
76137;BME280;68622;53.128;17.966;2023-12-20T03:06:49;100260.36;;;8.10;77.18
76137;BME280;68622;53.128;17.966;2023-12-20T03:09:15;100257.51;;;8.09;77.25
76137;BME280;68622;53.128;17.966;2023-12-20T03:11:41;100256.14;;;8.09;77.31
76137;BME280;68622;53.128;17.966;2023-12-20T03:14:07;100254.30;;;8.08;77.38
76137;BME280;68622;53.128;17.966;2023-12-20T03:16:33;100255.13;;;8.09;77.18
76137;BME280;68622;53.128;17.966;2023-12-20T03:18:59;100255.69;;;8.11;77.33
76137;BME280;68622;53.128;17.966;2023-12-20T03:21:25;100257.33;;;8.08;77.07
76137;BME280;68622;53.128;17.966;2023-12-20T03:23:51;100259.81;;;8.09;77.28
76137;BME280;68622;53.128;17.966;2023-12-20T03:26:16;100261.84;;;8.09;77.00
76137;BME280;68622;53.128;17.966;2023-12-20T03:28:42;100261.33;;;8.09;76.96
76137;BME280;68622;53.128;17.966;2023-12-20T03:31:09;100258.27;;;8.07;77.22
76137;BME280;68622;53.128;17.966;2023-12-20T03:33:35;100260.07;;;8.10;76.88
76137;BME280;68622;53.128;17.966;2023-12-20T03:36:01;100258.59;;;8.09;76.98
76137;BME280;68622;53.128;17.966;2023-12-20T03:38:27;100257.33;;;8.08;77.08
76137;BME280;68622;53.128;17.966;2023-12-20T03:40:53;100255.31;;;8.05;77.21
76137;BME280;68622;53.128;17.966;2023-12-20T03:43:19;100252.50;;;8.03;77.12
76137;BME280;68622;53.128;17.966;2023-12-20T03:45:45;100253.92;;;8.01;77.16
76137;BME280;68622;53.128;17.966;2023-12-20T03:48:11;100256.19;;;8.01;77.34
76137;BME280;68622;53.128;17.966;2023-12-20T03:50:37;100256.67;;;8.03;77.30
76137;BME280;68622;53.128;17.966;2023-12-20T03:53:03;100254.09;;;8.03;77.35
76137;BME280;68622;53.128;17.966;2023-12-20T03:55:29;100255.23;;;8.03;77.25
76137;BME280;68622;53.128;17.966;2023-12-20T03:57:55;100252.39;;;8.04;77.31
76137;BME280;68622;53.128;17.966;2023-12-20T04:00:21;100251.06;;;8.08;77.04
76137;BME280;68622;53.128;17.966;2023-12-20T04:02:47;100249.83;;;8.08;77.31
76137;BME280;68622;53.128;17.966;2023-12-20T04:05:13;100248.23;;;8.09;77.04
76137;BME280;68622;53.128;17.966;2023-12-20T04:07:39;100246.48;;;8.09;76.97
76137;BME280;68622;53.128;17.966;2023-12-20T04:10:05;100249.29;;;8.09;77.08
76137;BME280;68622;53.128;17.966;2023-12-20T04:12:32;100251.75;;;8.00;77.12
76137;BME280;68622;53.128;17.966;2023-12-20T04:14:59;100252.23;;;8.01;76.89
76137;BME280;68622;53.128;17.966;2023-12-20T04:17:25;100251.05;;;8.02;76.88
76137;BME280;68622;53.128;17.966;2023-12-20T04:19:51;100249.97;;;7.98;76.84
76137;BME280;68622;53.128;17.966;2023-12-20T04:22:18;100249.02;;;7.99;76.79
76137;BME280;68622;53.128;17.966;2023-12-20T04:24:44;100249.55;;;7.99;76.66
76137;BME280;68622;53.128;17.966;2023-12-20T04:27:11;100248.94;;;7.94;76.87
76137;BME280;68622;53.128;17.966;2023-12-20T04:29:37;100244.08;;;7.93;76.67
76137;BME280;68622;53.128;17.966;2023-12-20T04:32:04;100241.59;;;7.93;76.62
76137;BME280;68622;53.128;17.966;2023-12-20T04:34:30;100244.94;;;7.93;76.71
76137;BME280;68622;53.128;17.966;2023-12-20T04:36:56;100247.09;;;7.94;76.43
76137;BME280;68622;53.128;17.966;2023-12-20T04:39:22;100247.47;;;7.91;76.32
76137;BME280;68622;53.128;17.966;2023-12-20T04:41:48;100250.27;;;7.88;76.35
76137;BME280;68622;53.128;17.966;2023-12-20T04:44:15;100252.98;;;7.87;76.30
76137;BME280;68622;53.128;17.966;2023-12-20T04:46:40;100249.77;;;7.84;76.02
76137;BME280;68622;53.128;17.966;2023-12-20T04:49:06;100253.08;;;7.84;76.14
76137;BME280;68622;53.128;17.966;2023-12-20T04:51:33;100252.56;;;7.82;76.26
76137;BME280;68622;53.128;17.966;2023-12-20T04:54:01;100257.77;;;7.82;76.09
76137;BME280;68622;53.128;17.966;2023-12-20T04:56:27;100258.13;;;7.76;76.16
76137;BME280;68622;53.128;17.966;2023-12-20T04:58:53;100257.31;;;7.75;76.01
76137;BME280;68622;53.128;17.966;2023-12-20T05:01:19;100257.84;;;7.73;75.98
76137;BME280;68622;53.128;17.966;2023-12-20T05:03:45;100258.67;;;7.69;75.85
76137;BME280;68622;53.128;17.966;2023-12-20T05:06:11;100265.74;;;7.67;75.90
76137;BME280;68622;53.128;17.966;2023-12-20T05:08:36;100264.01;;;7.65;75.94
76137;BME280;68622;53.128;17.966;2023-12-20T05:11:03;100266.19;;;7.59;75.85
76137;BME280;68622;53.128;17.966;2023-12-20T05:13:29;100261.50;;;7.56;75.97
76137;BME280;68622;53.128;17.966;2023-12-20T05:15:55;100257.44;;;7.53;75.97
76137;BME280;68622;53.128;17.966;2023-12-20T05:18:21;100254.89;;;7.54;75.98
76137;BME280;68622;53.128;17.966;2023-12-20T05:20:47;100252.33;;;7.54;75.89
76137;BME280;68622;53.128;17.966;2023-12-20T05:23:13;100255.48;;;7.51;76.14
76137;BME280;68622;53.128;17.966;2023-12-20T05:25:39;100253.14;;;7.48;76.19
76137;BME280;68622;53.128;17.966;2023-12-20T05:28:05;100254.39;;;7.44;76.56
76137;BME280;68622;53.128;17.966;2023-12-20T05:30:31;100250.27;;;7.43;76.43
76137;BME280;68622;53.128;17.966;2023-12-20T05:32:57;100251.87;;;7.39;76.49
76137;BME280;68622;53.128;17.966;2023-12-20T05:35:23;100254.20;;;7.38;76.76
76137;BME280;68622;53.128;17.966;2023-12-20T05:37:49;100256.92;;;7.38;76.65
76137;BME280;68622;53.128;17.966;2023-12-20T05:40:15;100257.92;;;7.37;76.57
76137;BME280;68622;53.128;17.966;2023-12-20T05:42:41;100257.10;;;7.34;76.39
76137;BME280;68622;53.128;17.966;2023-12-20T05:45:08;100258.66;;;7.29;76.52
76137;BME280;68622;53.128;17.966;2023-12-20T05:47:34;100260.80;;;7.25;76.54
76137;BME280;68622;53.128;17.966;2023-12-20T05:50:00;100259.02;;;7.19;76.75
76137;BME280;68622;53.128;17.966;2023-12-20T05:52:26;100259.13;;;7.14;76.31
76137;BME280;68622;53.128;17.966;2023-12-20T05:54:52;100252.36;;;7.08;76.75
76137;BME280;68622;53.128;17.966;2023-12-20T05:57:18;100255.79;;;7.01;76.66
76137;BME280;68622;53.128;17.966;2023-12-20T05:59:44;100254.67;;;6.96;76.85
76137;BME280;68622;53.128;17.966;2023-12-20T06:02:10;100252.63;;;6.92;76.85
76137;BME280;68622;53.128;17.966;2023-12-20T06:04:36;100252.46;;;6.85;76.91
76137;BME280;68622;53.128;17.966;2023-12-20T06:07:02;100248.90;;;6.82;76.91
76137;BME280;68622;53.128;17.966;2023-12-20T06:09:29;100245.89;;;6.79;76.89
76137;BME280;68622;53.128;17.966;2023-12-20T06:11:55;100242.73;;;6.75;76.94
76137;BME280;68622;53.128;17.966;2023-12-20T06:14:21;100244.88;;;6.72;76.79
76137;BME280;68622;53.128;17.966;2023-12-20T06:16:47;100251.91;;;6.70;76.76
76137;BME280;68622;53.128;17.966;2023-12-20T06:19:13;100258.80;;;6.68;76.78
76137;BME280;68622;53.128;17.966;2023-12-20T06:21:39;100256.06;;;6.64;77.01
76137;BME280;68622;53.128;17.966;2023-12-20T06:24:05;100258.58;;;6.62;76.87
76137;BME280;68622;53.128;17.966;2023-12-20T06:26:31;100254.70;;;6.59;77.17
76137;BME280;68622;53.128;17.966;2023-12-20T06:28:57;100259.09;;;6.58;76.95
76137;BME280;68622;53.128;17.966;2023-12-20T06:31:23;100261.67;;;6.56;77.17
76137;BME280;68622;53.128;17.966;2023-12-20T06:33:49;100266.35;;;6.56;76.93
76137;BME280;68622;53.128;17.966;2023-12-20T06:36:23;100266.55;;;6.55;77.15
76137;BME280;68622;53.128;17.966;2023-12-20T06:38:50;100264.39;;;6.56;77.09
76137;BME280;68622;53.128;17.966;2023-12-20T06:41:16;100261.58;;;6.57;76.99
76137;BME280;68622;53.128;17.966;2023-12-20T06:43:42;100261.79;;;6.57;76.89
76137;BME280;68622;53.128;17.966;2023-12-20T06:46:08;100263.48;;;6.57;77.06
76137;BME280;68622;53.128;17.966;2023-12-20T06:48:35;100257.44;;;6.57;76.80
76137;BME280;68622;53.128;17.966;2023-12-20T06:51:01;100254.69;;;6.57;76.70
76137;BME280;68622;53.128;17.966;2023-12-20T06:53:28;100251.73;;;6.55;76.71
76137;BME280;68622;53.128;17.966;2023-12-20T06:55:54;100248.12;;;6.53;76.81
76137;BME280;68622;53.128;17.966;2023-12-20T06:58:22;100254.24;;;6.52;76.70
76137;BME280;68622;53.128;17.966;2023-12-20T07:00:48;100256.73;;;6.51;76.53
76137;BME280;68622;53.128;17.966;2023-12-20T07:03:14;100260.30;;;6.49;76.64
76137;BME280;68622;53.128;17.966;2023-12-20T07:05:40;100262.70;;;6.47;76.60
76137;BME280;68622;53.128;17.966;2023-12-20T07:08:06;100261.75;;;6.46;76.73
76137;BME280;68622;53.128;17.966;2023-12-20T07:10:32;100266.73;;;6.42;76.77
76137;BME280;68622;53.128;17.966;2023-12-20T07:12:58;100270.73;;;6.40;76.63
76137;BME280;68622;53.128;17.966;2023-12-20T07:15:25;100265.73;;;6.37;76.72
76137;BME280;68622;53.128;17.966;2023-12-20T07:17:51;100271.44;;;6.33;76.85
76137;BME280;68622;53.128;17.966;2023-12-20T07:20:16;100273.56;;;6.30;76.73
76137;BME280;68622;53.128;17.966;2023-12-20T07:22:42;100281.63;;;6.24;76.69
76137;BME280;68622;53.128;17.966;2023-12-20T07:25:08;100285.04;;;6.15;77.07
76137;BME280;68622;53.128;17.966;2023-12-20T07:27:36;100282.45;;;6.15;77.05
76137;BME280;68622;53.128;17.966;2023-12-20T07:30:02;100286.47;;;6.10;77.14
76137;BME280;68622;53.128;17.966;2023-12-20T07:32:28;100289.14;;;6.08;76.99
76137;BME280;68622;53.128;17.966;2023-12-20T07:34:55;100285.98;;;6.03;77.29
76137;BME280;68622;53.128;17.966;2023-12-20T07:37:21;100281.98;;;6.01;77.15
76137;BME280;68622;53.128;17.966;2023-12-20T07:39:47;100285.35;;;6.02;76.91
76137;BME280;68622;53.128;17.966;2023-12-20T07:42:13;100288.04;;;6.01;77.04
76137;BME280;68622;53.128;17.966;2023-12-20T07:44:39;100279.05;;;5.99;76.95
76137;BME280;68622;53.128;17.966;2023-12-20T07:47:05;100279.59;;;5.98;76.81
76137;BME280;68622;53.128;17.966;2023-12-20T07:49:31;100286.28;;;5.96;76.72
76137;BME280;68622;53.128;17.966;2023-12-20T07:51:57;100289.62;;;5.95;76.65
76137;BME280;68622;53.128;17.966;2023-12-20T07:54:23;100283.70;;;5.94;76.67
76137;BME280;68622;53.128;17.966;2023-12-20T07:56:49;100282.14;;;5.92;76.63
76137;BME280;68622;53.128;17.966;2023-12-20T07:59:15;100283.61;;;5.91;76.53
76137;BME280;68622;53.128;17.966;2023-12-20T08:01:41;100288.14;;;5.88;76.55
76137;BME280;68622;53.128;17.966;2023-12-20T08:04:08;100291.03;;;5.86;76.71
76137;BME280;68622;53.128;17.966;2023-12-20T08:06:34;100290.85;;;5.86;76.53
76137;BME280;68622;53.128;17.966;2023-12-20T08:09:00;100286.25;;;5.85;76.53
76137;BME280;68622;53.128;17.966;2023-12-20T08:11:26;100283.90;;;5.84;76.48
76137;BME280;68622;53.128;17.966;2023-12-20T08:13:52;100279.92;;;5.85;76.54
76137;BME280;68622;53.128;17.966;2023-12-20T08:16:17;100282.86;;;5.85;76.72
76137;BME280;68622;53.128;17.966;2023-12-20T08:18:44;100277.48;;;5.85;76.49
76137;BME280;68622;53.128;17.966;2023-12-20T08:21:10;100281.37;;;5.84;76.74
76137;BME280;68622;53.128;17.966;2023-12-20T08:23:37;100281.63;;;5.81;76.99
76137;BME280;68622;53.128;17.966;2023-12-20T08:26:06;100277.05;;;5.82;77.01
76137;BME280;68622;53.128;17.966;2023-12-20T08:28:32;100274.59;;;5.82;77.29
76137;BME280;68622;53.128;17.966;2023-12-20T08:30:59;100274.61;;;5.89;77.06
76137;BME280;68622;53.128;17.966;2023-12-20T08:33:25;100277.12;;;5.88;77.53
76137;BME280;68622;53.128;17.966;2023-12-20T08:35:51;100277.05;;;5.93;77.37
76137;BME280;68622;53.128;17.966;2023-12-20T08:38:17;100274.53;;;5.99;77.13
76137;BME280;68622;53.128;17.966;2023-12-20T08:40:44;100275.73;;;5.99;77.01
76137;BME280;68622;53.128;17.966;2023-12-20T08:43:10;100277.70;;;5.98;77.30
76137;BME280;68622;53.128;17.966;2023-12-20T08:45:36;100279.88;;;6.06;77.22
76137;BME280;68622;53.128;17.966;2023-12-20T08:48:02;100276.89;;;6.11;77.14
76137;BME280;68622;53.128;17.966;2023-12-20T08:50:29;100270.45;;;6.17;77.07
76137;BME280;68622;53.128;17.966;2023-12-20T08:52:55;100266.51;;;6.21;76.80
76137;BME280;68622;53.128;17.966;2023-12-20T08:55:21;100264.73;;;6.21;76.73
76137;BME280;68622;53.128;17.966;2023-12-20T08:57:47;100262.80;;;6.24;76.53
76137;BME280;68622;53.128;17.966;2023-12-20T09:00:13;100262.77;;;6.20;76.49
76137;BME280;68622;53.128;17.966;2023-12-20T09:02:39;100263.70;;;6.21;76.34
76137;BME280;68622;53.128;17.966;2023-12-20T09:05:05;100261.85;;;6.23;76.40
76137;BME280;68622;53.128;17.966;2023-12-20T09:07:31;100261.40;;;6.29;76.31
76137;BME280;68622;53.128;17.966;2023-12-20T09:09:58;100258.89;;;6.37;76.18
76137;BME280;68622;53.128;17.966;2023-12-20T09:12:25;100256.10;;;6.39;75.92
76137;BME280;68622;53.128;17.966;2023-12-20T09:14:51;100246.40;;;6.49;75.80
76137;BME280;68622;53.128;17.966;2023-12-20T09:17:18;100241.14;;;6.59;75.51
76137;BME280;68622;53.128;17.966;2023-12-20T09:19:45;100242.14;;;6.61;75.04
76137;BME280;68622;53.128;17.966;2023-12-20T09:22:11;100242.45;;;6.64;75.00
76137;BME280;68622;53.128;17.966;2023-12-20T09:24:37;100239.01;;;6.70;74.78
76137;BME280;68622;53.128;17.966;2023-12-20T09:27:05;100234.36;;;6.83;74.86
76137;BME280;68622;53.128;17.966;2023-12-20T09:29:31;100233.25;;;6.95;74.48
76137;BME280;68622;53.128;17.966;2023-12-20T09:31:57;100238.49;;;7.00;74.27
76137;BME280;68622;53.128;17.966;2023-12-20T09:34:24;100234.52;;;7.00;74.09
76137;BME280;68622;53.128;17.966;2023-12-20T09:36:52;100239.92;;;7.02;74.26
76137;BME280;68622;53.128;17.966;2023-12-20T09:39:19;100241.40;;;7.07;74.40
76137;BME280;68622;53.128;17.966;2023-12-20T09:41:54;100244.43;;;7.12;73.51
76137;BME280;68622;53.128;17.966;2023-12-20T09:44:23;100235.46;;;7.14;73.04
76137;BME280;68622;53.128;17.966;2023-12-20T09:46:50;100228.35;;;7.21;73.21
76137;BME280;68622;53.128;17.966;2023-12-20T09:49:18;100230.77;;;7.25;72.70
76137;BME280;68622;53.128;17.966;2023-12-20T09:51:46;100216.05;;;7.11;72.07
76137;BME280;68622;53.128;17.966;2023-12-20T09:54:14;100207.88;;;7.18;72.53
76137;BME280;68622;53.128;17.966;2023-12-20T09:56:41;100198.43;;;7.19;72.79
76137;BME280;68622;53.128;17.966;2023-12-20T09:59:07;100194.07;;;7.26;72.57
76137;BME280;68622;53.128;17.966;2023-12-20T10:01:34;100191.33;;;7.22;71.59
76137;BME280;68622;53.128;17.966;2023-12-20T10:04:03;100189.95;;;7.26;71.44
76137;BME280;68622;53.128;17.966;2023-12-20T10:06:32;100189.36;;;7.33;71.22
76137;BME280;68622;53.128;17.966;2023-12-20T10:08:58;100185.36;;;7.40;70.55
76137;BME280;68622;53.128;17.966;2023-12-20T10:11:24;100185.11;;;7.49;70.75
76137;BME280;68622;53.128;17.966;2023-12-20T10:13:51;100179.36;;;7.72;71.51
76137;BME280;68622;53.128;17.966;2023-12-20T10:16:16;100181.33;;;7.79;70.92
76137;BME280;68622;53.128;17.966;2023-12-20T10:18:43;100177.17;;;7.85;70.86
76137;BME280;68622;53.128;17.966;2023-12-20T10:21:09;100175.46;;;7.79;70.24
76137;BME280;68622;53.128;17.966;2023-12-20T10:23:36;100162.39;;;7.67;70.16
76137;BME280;68622;53.128;17.966;2023-12-20T10:26:02;100159.58;;;7.81;70.47
76137;BME280;68622;53.128;17.966;2023-12-20T10:28:33;100161.10;;;7.80;70.44
76137;BME280;68622;53.128;17.966;2023-12-20T10:31:00;100155.54;;;7.86;71.04
76137;BME280;68622;53.128;17.966;2023-12-20T10:33:27;100153.50;;;7.84;70.78
76137;BME280;68622;53.128;17.966;2023-12-20T10:35:55;100152.39;;;7.76;70.06
76137;BME280;68622;53.128;17.966;2023-12-20T10:38:21;100143.82;;;7.72;70.11
76137;BME280;68622;53.128;17.966;2023-12-20T10:40:49;100137.91;;;7.74;70.76
76137;BME280;68622;53.128;17.966;2023-12-20T10:43:19;100141.16;;;7.79;71.29
76137;BME280;68622;53.128;17.966;2023-12-20T10:45:46;100140.66;;;7.81;71.31
76137;BME280;68622;53.128;17.966;2023-12-20T10:48:12;100136.84;;;7.83;71.18
76137;BME280;68622;53.128;17.966;2023-12-20T10:50:38;100132.68;;;7.81;70.72
76137;BME280;68622;53.128;17.966;2023-12-20T10:53:04;100132.52;;;7.83;70.79
76137;BME280;68622;53.128;17.966;2023-12-20T10:55:30;100122.19;;;7.78;70.88
76137;BME280;68622;53.128;17.966;2023-12-20T10:58:09;100122.08;;;7.69;70.43
76137;BME280;68622;53.128;17.966;2023-12-20T11:00:43;100118.48;;;7.59;70.41
76137;BME280;68622;53.128;17.966;2023-12-20T11:03:11;100113.55;;;7.62;70.89
76137;BME280;68622;53.128;17.966;2023-12-20T11:05:49;100109.70;;;7.53;70.45
76137;BME280;68622;53.128;17.966;2023-12-20T11:08:22;100101.58;;;7.53;70.12
76137;BME280;68622;53.128;17.966;2023-12-20T11:13:32;100090.14;;;7.41;70.18
76137;BME280;68622;53.128;17.966;2023-12-20T11:16:00;100085.10;;;7.32;70.13
76137;BME280;68622;53.128;17.966;2023-12-20T11:18:30;100081.86;;;7.27;70.42
76137;BME280;68622;53.128;17.966;2023-12-20T11:21:00;100074.02;;;7.34;70.71
76137;BME280;68622;53.128;17.966;2023-12-20T11:23:27;100071.79;;;7.36;70.69
76137;BME280;68622;53.128;17.966;2023-12-20T11:25:55;100066.58;;;7.27;70.51
76137;BME280;68622;53.128;17.966;2023-12-20T11:28:23;100055.95;;;7.22;70.42
76137;BME280;68622;53.128;17.966;2023-12-20T11:30:51;100053.52;;;7.16;70.69
76137;BME280;68622;53.128;17.966;2023-12-20T11:33:26;100051.11;;;7.26;70.77
76137;BME280;68622;53.128;17.966;2023-12-20T11:35:56;100043.92;;;7.35;70.76
76137;BME280;68622;53.128;17.966;2023-12-20T11:38:22;100041.41;;;7.36;70.83
76137;BME280;68622;53.128;17.966;2023-12-20T11:40:49;100031.70;;;7.25;71.06
76137;BME280;68622;53.128;17.966;2023-12-20T11:43:32;100025.69;;;7.33;70.97
76137;BME280;68622;53.128;17.966;2023-12-20T11:46:09;100023.40;;;7.39;71.02
76137;BME280;68622;53.128;17.966;2023-12-20T11:48:38;100020.30;;;7.41;71.11
76137;BME280;68622;53.128;17.966;2023-12-20T11:51:11;100018.78;;;7.29;70.84
76137;BME280;68622;53.128;17.966;2023-12-20T11:53:38;100018.11;;;7.42;71.00
76137;BME280;68622;53.128;17.966;2023-12-20T11:56:06;100008.60;;;7.21;71.34
76137;BME280;68622;53.128;17.966;2023-12-20T11:58:33;100007.22;;;7.39;71.29
76137;BME280;68622;53.128;17.966;2023-12-20T12:00:59;100001.73;;;7.42;71.38
76137;BME280;68622;53.128;17.966;2023-12-20T12:03:25;100001.53;;;7.33;71.58
76137;BME280;68622;53.128;17.966;2023-12-20T12:05:51;99993.47;;;7.24;72.08
76137;BME280;68622;53.128;17.966;2023-12-20T12:08:17;99985.39;;;7.22;72.02
76137;BME280;68622;53.128;17.966;2023-12-20T12:10:44;99983.08;;;7.21;72.02
76137;BME280;68622;53.128;17.966;2023-12-20T12:13:10;99981.59;;;7.36;72.14
76137;BME280;68622;53.128;17.966;2023-12-20T12:15:37;99975.67;;;7.39;72.02
76137;BME280;68622;53.128;17.966;2023-12-20T12:18:04;99971.14;;;7.41;72.11
76137;BME280;68622;53.128;17.966;2023-12-20T12:20:30;99967.40;;;7.44;72.27
76137;BME280;68622;53.128;17.966;2023-12-20T12:23:22;99964.83;;;7.40;72.12
76137;BME280;68622;53.128;17.966;2023-12-20T12:25:49;99960.12;;;7.45;72.32
76137;BME280;68622;53.128;17.966;2023-12-20T12:28:15;99955.79;;;7.45;72.34
76137;BME280;68622;53.128;17.966;2023-12-20T12:30:41;99951.17;;;7.26;72.53
76137;BME280;68622;53.128;17.966;2023-12-20T12:33:07;99949.27;;;7.37;72.69
76137;BME280;68622;53.128;17.966;2023-12-20T12:35:34;99942.41;;;7.40;72.34
76137;BME280;68622;53.128;17.966;2023-12-20T12:38:00;99944.30;;;7.38;72.36
76137;BME280;68622;53.128;17.966;2023-12-20T12:40:28;99937.46;;;7.35;72.27
76137;BME280;68622;53.128;17.966;2023-12-20T12:42:55;99938.75;;;7.18;72.55
76137;BME280;68622;53.128;17.966;2023-12-20T12:45:21;99932.64;;;7.18;72.65
76137;BME280;68622;53.128;17.966;2023-12-20T12:47:48;99934.05;;;7.17;72.61
76137;BME280;68622;53.128;17.966;2023-12-20T12:50:13;99924.70;;;7.15;72.96